createdAt,value
2022-12-17T00:01:19.850Z,101167.56
2022-12-17T00:04:20.819Z,101168.47
2022-12-17T00:07:06.638Z,101169.28
2022-12-17T00:09:52.384Z,101179.78
2022-12-17T00:12:43.513Z,101161.03
2022-12-17T00:15:29.459Z,101188.41
2022-12-17T00:18:23.076Z,101191.75
2022-12-17T00:21:12.946Z,101196.94
2022-12-17T00:23:58.993Z,101174.13
2022-12-17T00:26:45.065Z,101189.16
2022-12-17T00:29:31.140Z,101188.13
2022-12-17T00:32:17.418Z,101136.59
2022-12-17T00:35:04.582Z,101183.44
2022-12-17T00:37:51.093Z,101169.97
2022-12-17T00:40:38.084Z,101132.63
2022-12-17T00:43:27.095Z,101153.22
2022-12-17T00:46:14.678Z,101186.66
2022-12-17T00:49:00.777Z,101212.19
2022-12-17T00:51:49.076Z,101213.94
2022-12-17T00:54:34.769Z,101141.25
2022-12-17T00:57:20.690Z,101229.53
2022-12-17T01:00:06.734Z,101170.38
2022-12-17T01:02:52.886Z,101220.63
2022-12-17T01:05:39.613Z,101223.34
2022-12-17T01:08:33.517Z,101231.13
2022-12-17T01:11:21.199Z,101207.34
2022-12-17T01:14:12.825Z,101221.16
2022-12-17T01:16:58.565Z,101234.53
2022-12-17T01:19:44.497Z,101237.91
2022-12-17T01:22:30.475Z,101180.06
2022-12-17T01:25:17.448Z,101175.75
2022-12-17T01:28:07.414Z,101230.81
2022-12-17T01:30:55.967Z,101224.63
2022-12-17T01:33:42.496Z,101222.59
2022-12-17T01:36:28.442Z,101243.16
2022-12-17T01:39:15.491Z,101246.41
2022-12-17T01:42:02.664Z,101247.22
2022-12-17T01:45:11.226Z,101236.69
2022-12-17T01:48:02.593Z,101181.78
2022-12-17T01:50:53.769Z,101195.13
2022-12-17T01:53:47.413Z,101257.81
2022-12-17T01:56:34.510Z,101257.81
2022-12-17T01:59:24.348Z,101263.78
2022-12-17T02:02:10.417Z,101259.59
2022-12-17T02:04:57.788Z,101265.75
2022-12-17T02:08:11.489Z,101263.25
2022-12-17T02:11:07.132Z,101249.91
2022-12-17T02:13:58.510Z,101266.53
2022-12-17T02:16:53.960Z,101261.47
2022-12-17T02:20:02.620Z,101259.63
2022-12-17T02:23:08.311Z,101264.13
2022-12-17T02:26:02.361Z,101202.22
2022-12-17T02:29:01.610Z,101267.69
2022-12-17T02:31:50.810Z,101236.41
2022-12-17T02:34:37.530Z,101232.97
2022-12-17T02:37:23.902Z,101268.69
2022-12-17T02:40:10.880Z,101272.41
2022-12-17T02:42:57.417Z,101271.63
2022-12-17T02:45:53.949Z,101271.78
2022-12-17T02:48:41.111Z,101279.53
2022-12-17T02:51:28.706Z,101272.66
2022-12-17T02:54:14.744Z,101274.34
2022-12-17T02:57:01.296Z,101279.69
2022-12-17T02:59:47.119Z,101282.28
2022-12-17T03:02:36.628Z,101280.56
2022-12-17T03:05:44.439Z,101279.53
2022-12-17T03:08:31.099Z,101284.09
2022-12-17T03:11:16.903Z,101284.97
2022-12-17T03:14:02.676Z,101263.66
2022-12-17T03:16:48.906Z,101292.00
2022-12-17T03:19:36.319Z,101257.53
2022-12-17T03:22:22.292Z,101294.75
2022-12-17T03:25:08.372Z,101279.88
2022-12-17T03:27:54.330Z,101290.66
2022-12-17T03:30:44.361Z,101289.69
2022-12-17T03:33:33.582Z,101298.28
2022-12-17T03:36:21.145Z,101301.81
2022-12-17T03:39:06.956Z,101292.28
2022-12-17T03:41:52.973Z,101301.69
2022-12-17T03:44:35.125Z,101283.16
2022-12-17T03:47:21.326Z,101263.66
2022-12-17T03:50:07.244Z,101260.13
2022-12-17T03:52:54.369Z,101310.63
2022-12-17T03:55:40.360Z,101223.75
2022-12-17T03:58:26.429Z,101304.22
2022-12-17T04:01:12.351Z,101320.09
2022-12-17T04:03:58.447Z,101324.44
2022-12-17T04:06:44.422Z,101321.78
2022-12-17T04:09:31.859Z,101314.97
2022-12-17T04:12:17.873Z,101289.28
2022-12-17T04:15:03.903Z,101327.16
2022-12-17T04:17:50.083Z,101328.91
2022-12-17T04:20:36.526Z,101296.75
2022-12-17T04:23:22.441Z,101291.47
2022-12-17T04:26:09.509Z,101338.56
2022-12-17T04:28:55.649Z,101347.28
2022-12-17T04:31:41.610Z,101264.94
2022-12-17T04:34:27.535Z,101301.28
2022-12-17T04:37:13.333Z,101341.88
2022-12-17T04:39:59.461Z,101358.72
2022-12-17T04:42:46.667Z,101357.84
2022-12-17T04:45:32.485Z,101354.31
2022-12-17T04:48:22.982Z,101364.53
2022-12-17T04:51:09.164Z,101333.34
2022-12-17T04:53:55.056Z,101353.69
2022-12-17T04:56:41.401Z,101360.72
2022-12-17T04:59:25.047Z,101323.94
2022-12-17T05:02:10.765Z,101324.69
2022-12-17T05:04:56.479Z,101344.63
2022-12-17T05:07:42.357Z,101357.72
2022-12-17T05:10:28.810Z,101379.16
2022-12-17T05:13:30.572Z,101284.19
2022-12-17T05:16:17.734Z,101236.06
2022-12-17T05:18:59.990Z,101373.41
2022-12-17T05:21:45.757Z,101382.63
2022-12-17T05:24:31.697Z,101391.44
2022-12-17T05:27:17.763Z,101389.84
2022-12-17T05:30:03.677Z,101369.47
2022-12-17T05:32:50.936Z,101411.00
2022-12-17T05:35:36.937Z,101404.84
2022-12-17T05:38:24.353Z,101399.66
2022-12-17T05:41:10.510Z,101391.44
2022-12-17T05:43:56.678Z,101435.06
2022-12-17T05:46:42.849Z,101395.19
2022-12-17T05:49:30.394Z,101439.44
2022-12-17T05:52:16.504Z,101428.53
2022-12-17T05:55:10.829Z,101442.25
2022-12-17T05:57:56.956Z,101450.03
2022-12-17T06:00:42.885Z,101455.34
2022-12-17T06:03:29.389Z,101412.91
2022-12-17T06:06:16.780Z,101426.50
2022-12-17T06:09:03.254Z,101411.28
2022-12-17T06:11:49.313Z,101472.50
2022-12-17T06:14:35.255Z,101441.38
2022-12-17T06:17:21.272Z,101426.38
2022-12-17T06:20:07.276Z,101481.00
2022-12-17T06:22:54.390Z,101450.09
2022-12-17T06:25:40.422Z,101470.91
2022-12-17T06:28:26.408Z,101423.41
2022-12-17T06:31:13.181Z,101482.09
2022-12-17T06:33:59.266Z,101479.19
2022-12-17T06:36:44.959Z,101485.91
2022-12-17T06:39:32.074Z,101479.56
2022-12-17T06:42:17.955Z,101490.66
2022-12-17T06:45:15.187Z,101439.91
2022-12-17T06:48:07.427Z,101497.28
2022-12-17T06:50:53.301Z,101509.34
2022-12-17T06:53:39.330Z,101512.91
2022-12-17T06:56:27.578Z,101476.97
2022-12-17T06:59:27.936Z,101519.44
2022-12-17T07:02:13.665Z,101461.00
2022-12-17T07:04:59.666Z,101518.63
2022-12-17T07:07:45.691Z,101512.50
2022-12-17T07:10:31.608Z,101433.38
2022-12-17T07:13:24.993Z,101394.41
2022-12-17T07:16:11.864Z,101537.78
2022-12-17T07:18:58.019Z,101342.97
2022-12-17T07:21:43.887Z,101514.81
2022-12-17T07:24:30.407Z,101543.03
2022-12-17T07:27:16.285Z,101543.41
2022-12-17T07:30:03.452Z,101554.38
2022-12-17T07:32:49.352Z,101516.28
2022-12-17T07:35:35.514Z,101511.16
2022-12-17T07:38:23.519Z,101570.00
2022-12-17T07:41:09.378Z,101517.97
2022-12-17T07:43:55.361Z,101535.81
2022-12-17T07:46:42.734Z,101576.28
2022-12-17T07:49:28.845Z,101578.22
2022-12-17T07:52:14.599Z,101581.47
2022-12-17T07:55:03.021Z,101568.44
2022-12-17T07:57:49.061Z,101580.13
2022-12-17T08:00:34.818Z,101572.81
2022-12-17T08:03:22.587Z,101588.94
2022-12-17T08:06:08.755Z,101578.81
2022-12-17T08:08:54.717Z,101598.13
2022-12-17T08:11:37.000Z,101515.28
2022-12-17T08:14:22.737Z,101608.19
2022-12-17T08:17:08.816Z,101613.69
2022-12-17T08:19:56.069Z,101615.41
2022-12-17T08:22:42.010Z,101612.81
2022-12-17T08:25:28.492Z,101616.41
2022-12-17T08:28:48.520Z,101618.13
2022-12-17T08:31:21.873Z,101590.50
2022-12-17T08:34:08.366Z,101622.34
2022-12-17T08:36:55.631Z,101433.97
2022-12-17T08:39:41.726Z,101597.25
2022-12-17T08:42:27.686Z,101629.59
2022-12-17T08:45:13.785Z,101640.91
2022-12-17T08:48:03.852Z,101647.06
2022-12-17T08:50:50.284Z,101637.13
2022-12-17T08:53:38.153Z,101648.75
2022-12-17T08:56:26.157Z,101656.53
2022-12-17T08:59:12.233Z,101656.84
2022-12-17T09:01:58.376Z,101662.16
2022-12-17T09:04:44.414Z,101654.31
2022-12-17T09:07:26.578Z,101660.34
2022-12-17T09:10:25.306Z,101656.09
2022-12-17T09:13:10.930Z,101664.69
2022-12-17T09:15:57.293Z,101666.03
2022-12-17T09:18:43.082Z,101659.38
2022-12-17T09:21:29.073Z,101638.19
2022-12-17T09:24:14.806Z,101672.78
2022-12-17T09:27:01.875Z,101672.19
2022-12-17T09:29:47.963Z,101678.31
2022-12-17T09:32:34.036Z,101678.25
2022-12-17T09:35:19.870Z,101687.00
2022-12-17T09:38:11.258Z,101687.53
2022-12-17T09:40:59.478Z,101673.59
2022-12-17T09:44:00.448Z,101652.03
2022-12-17T09:46:55.585Z,101689.44
2022-12-17T09:49:45.100Z,101680.84
2022-12-17T09:52:42.714Z,101682.63
2022-12-17T09:55:38.343Z,101602.63
2022-12-17T09:58:36.926Z,101701.41
2022-12-17T10:01:25.351Z,101702.03
2022-12-17T10:04:07.996Z,101699.59
2022-12-17T10:06:54.943Z,101704.97
2022-12-17T10:09:40.620Z,101655.53
2022-12-17T10:12:33.314Z,101705.22
2022-12-17T10:15:19.806Z,101714.47
2022-12-17T10:18:07.248Z,101683.72
2022-12-17T10:20:59.492Z,101710.00
2022-12-17T10:23:47.856Z,101717.22
2022-12-17T10:26:37.831Z,101724.31
2022-12-17T10:29:29.772Z,101720.00
2022-12-17T10:32:27.031Z,101725.56
2022-12-17T10:35:14.331Z,101536.72
2022-12-17T10:38:01.636Z,101724.88
2022-12-17T10:40:52.183Z,101730.19
2022-12-17T10:43:44.404Z,101725.06
2022-12-17T10:46:30.650Z,101599.06
2022-12-17T10:49:24.283Z,101694.44
2022-12-17T10:52:18.627Z,101614.19
2022-12-17T10:55:31.560Z,101747.16
2022-12-17T10:58:22.353Z,101495.09
2022-12-17T11:01:13.932Z,101753.63
2022-12-17T11:04:11.383Z,101724.41
2022-12-17T11:07:03.407Z,101740.91
2022-12-17T11:10:03.813Z,101732.78
2022-12-17T11:13:15.057Z,101750.63
2022-12-17T11:16:07.844Z,101758.69
2022-12-17T11:19:07.585Z,101755.75
2022-12-17T11:22:00.939Z,101754.03
2022-12-17T11:24:56.638Z,101763.31
2022-12-17T11:27:50.083Z,101712.06
2022-12-17T11:30:37.072Z,101774.84
2022-12-17T11:33:40.480Z,101774.50
2022-12-17T11:36:39.086Z,101776.38
2022-12-17T11:39:40.556Z,101761.56
2022-12-17T11:42:39.869Z,101785.47
2022-12-17T11:45:42.021Z,101737.78
2022-12-17T11:48:44.432Z,101712.34
2022-12-17T11:51:39.595Z,101787.69
2022-12-17T11:54:39.124Z,101732.34
2022-12-17T11:57:42.880Z,101804.88
2022-12-17T12:00:38.956Z,101808.19
2022-12-17T12:03:49.195Z,101804.53
2022-12-17T12:07:00.333Z,101797.38
2022-12-17T12:10:06.371Z,101774.41
2022-12-17T12:13:09.322Z,101810.50
2022-12-17T12:16:11.084Z,101807.00
2022-12-17T12:19:10.136Z,101814.22
2022-12-17T12:22:03.612Z,101808.13
2022-12-17T12:25:12.880Z,101807.91
2022-12-17T12:28:14.299Z,101744.53
2022-12-17T12:31:14.852Z,101815.78
2022-12-17T12:34:12.044Z,101788.50
2022-12-17T12:36:59.960Z,101832.91
2022-12-17T12:39:53.352Z,101788.16
2022-12-17T12:42:51.008Z,101798.59
2022-12-17T12:45:58.490Z,101848.03
2022-12-17T12:49:01.907Z,101845.44
2022-12-17T12:51:53.483Z,101784.69
2022-12-17T12:54:47.882Z,101840.91
2022-12-17T12:57:49.262Z,101853.00
2022-12-17T13:00:57.805Z,101854.06
2022-12-17T13:03:49.788Z,101853.59
2022-12-17T13:06:42.606Z,101845.63
2022-12-17T13:09:38.640Z,101854.78
2022-12-17T13:12:35.645Z,101848.50
2022-12-17T13:15:37.425Z,101814.25
2022-12-17T13:18:24.204Z,101854.59
2022-12-17T13:21:02.669Z,101854.66
2022-12-17T13:23:35.351Z,101865.06
2022-12-17T13:26:24.990Z,101865.63
2022-12-17T13:29:14.686Z,101869.13
2022-12-17T13:31:59.885Z,101873.16
2022-12-17T13:34:41.930Z,101886.13
2022-12-17T13:37:21.325Z,101873.44
2022-12-17T13:40:01.417Z,101838.53
2022-12-17T13:42:33.035Z,101857.78
2022-12-17T13:45:02.559Z,101876.50
2022-12-17T13:47:38.305Z,101885.16
2022-12-17T13:50:34.020Z,101890.53
2022-12-17T13:53:12.318Z,101890.59
2022-12-17T13:55:41.286Z,101889.84
2022-12-17T13:58:24.004Z,101854.91
2022-12-17T14:00:52.975Z,101891.97
2022-12-17T14:03:42.873Z,101893.56
2022-12-17T14:06:13.346Z,101884.19
2022-12-17T14:08:42.598Z,101873.31
2022-12-17T14:11:31.147Z,101914.91
2022-12-17T14:13:59.863Z,101918.91
2022-12-17T14:16:28.570Z,101915.50
2022-12-17T14:19:00.888Z,101918.59
2022-12-17T14:21:31.114Z,101750.09
2022-12-17T14:24:00.084Z,101927.00
2022-12-17T14:26:28.383Z,101908.84
2022-12-17T14:28:59.056Z,101763.69
2022-12-17T14:31:29.574Z,101934.59
2022-12-17T14:34:08.537Z,101941.72
2022-12-17T14:36:39.631Z,101935.50
2022-12-17T14:39:20.800Z,101940.09
2022-12-17T14:42:07.445Z,101944.41
2022-12-17T14:44:36.050Z,101946.69
2022-12-17T14:47:18.657Z,101955.13
2022-12-17T14:50:25.176Z,101960.09
2022-12-17T14:52:55.700Z,101882.41
2022-12-17T14:55:37.796Z,101919.94
2022-12-17T14:58:20.939Z,101859.69
2022-12-17T15:00:55.798Z,101913.78
2022-12-17T15:03:30.620Z,101980.44
2022-12-17T15:06:04.782Z,101975.91
2022-12-17T15:08:37.178Z,101925.63
2022-12-17T15:11:06.394Z,101988.81
2022-12-17T15:13:34.888Z,101947.88
2022-12-17T15:16:03.881Z,101971.63
2022-12-17T15:18:32.578Z,101994.47
2022-12-17T15:21:03.976Z,101945.38
2022-12-17T15:23:35.389Z,101951.28
2022-12-17T15:26:04.065Z,101992.53
2022-12-17T15:28:33.412Z,101993.53
2022-12-17T15:31:02.166Z,101978.28
2022-12-17T15:33:30.644Z,102001.22
2022-12-17T15:36:00.946Z,101999.25
2022-12-17T15:38:30.853Z,102003.41
2022-12-17T15:41:21.972Z,102000.81
2022-12-17T15:43:50.145Z,101984.75
2022-12-17T15:46:18.989Z,102017.41
2022-12-17T15:48:50.456Z,101993.09
2022-12-17T15:51:21.221Z,101883.31
2022-12-17T15:53:49.925Z,102010.91
2022-12-17T15:56:22.784Z,101942.09
2022-12-17T15:58:51.802Z,102015.47
2022-12-17T16:01:21.275Z,101997.72
2022-12-17T16:03:50.035Z,102011.31
2022-12-17T16:06:18.557Z,102012.38
2022-12-17T16:08:48.394Z,102009.72
2022-12-17T16:11:17.146Z,102015.69
2022-12-17T16:13:45.613Z,101989.94
2022-12-17T16:16:14.042Z,102005.81
2022-12-17T16:18:45.021Z,101903.94
2022-12-17T16:21:13.520Z,101972.91
2022-12-17T16:23:41.979Z,102034.91
2022-12-17T16:26:13.440Z,101981.25
2022-12-17T16:28:45.236Z,101989.59
2022-12-17T16:31:16.861Z,102040.44
2022-12-17T16:33:48.162Z,102037.13
2022-12-17T16:36:21.674Z,102042.22
2022-12-17T16:38:53.022Z,102012.94
2022-12-17T16:41:23.878Z,102049.09
2022-12-17T16:43:52.343Z,102046.19
2022-12-17T16:46:29.859Z,102041.00
2022-12-17T16:49:00.826Z,102003.28
2022-12-17T16:51:29.956Z,102045.34
2022-12-17T16:53:59.735Z,102046.91
2022-12-17T16:56:32.766Z,102052.97
2022-12-17T16:59:08.164Z,102059.16
2022-12-17T17:01:38.589Z,102058.97
2022-12-17T17:04:10.061Z,102069.44
2022-12-17T17:06:41.105Z,102044.91
2022-12-17T17:09:09.870Z,102021.47
2022-12-17T17:11:40.005Z,102032.09
2022-12-17T17:14:10.873Z,102081.16
2022-12-17T17:16:39.511Z,102075.31
2022-12-17T17:19:09.027Z,101957.44
2022-12-17T17:21:39.236Z,102056.69
2022-12-17T17:24:18.470Z,102080.34
2022-12-17T17:26:52.452Z,101973.16
2022-12-17T17:29:20.970Z,102079.09
2022-12-17T17:34:39.257Z,102082.88
2022-12-17T17:37:08.263Z,102028.91
2022-12-17T17:39:36.601Z,102101.63
2022-12-17T17:42:07.630Z,102103.25
2022-12-17T17:44:38.369Z,102104.00
2022-12-17T17:47:07.312Z,102107.63
2022-12-17T17:49:35.805Z,102112.91
2022-12-17T17:52:09.925Z,101846.16
2022-12-17T17:54:40.484Z,102123.56
2022-12-17T17:57:11.390Z,102115.34
2022-12-17T17:59:40.475Z,102006.75
2022-12-17T18:02:11.751Z,102062.81
2022-12-17T18:04:41.095Z,102017.41
2022-12-17T18:07:27.214Z,102090.66
2022-12-17T18:09:56.629Z,101995.34
2022-12-17T18:12:43.736Z,102138.97
2022-12-17T18:15:17.222Z,102125.00
2022-12-17T18:17:51.446Z,102141.53
2022-12-17T18:20:20.672Z,102156.72
2022-12-17T18:22:50.525Z,102119.50
2022-12-17T18:25:20.754Z,102146.72
2022-12-17T18:27:53.986Z,102146.81
2022-12-17T18:30:23.910Z,102137.63
2022-12-17T18:32:52.528Z,102020.81
2022-12-17T18:35:21.126Z,102034.09
2022-12-17T18:37:49.757Z,102115.66
2022-12-17T18:40:18.508Z,102130.75
2022-12-17T18:43:04.625Z,102152.44
2022-12-17T18:45:38.215Z,102156.63
2022-12-17T18:48:07.438Z,102159.78
2022-12-17T18:50:38.405Z,102160.66
2022-12-17T18:53:07.293Z,102122.81
2022-12-17T18:55:40.561Z,102139.69
2022-12-17T18:58:10.554Z,102156.84
2022-12-17T19:00:40.407Z,102165.50
2022-12-17T19:03:10.162Z,102146.84
2022-12-17T19:05:45.765Z,102170.22
2022-12-17T19:08:16.354Z,102170.31
2022-12-17T19:10:45.273Z,102174.34
2022-12-17T19:13:13.744Z,102058.97
2022-12-17T19:15:44.179Z,102181.94
2022-12-17T19:18:12.534Z,102190.53
2022-12-17T19:20:41.710Z,102143.34
2022-12-17T19:23:10.066Z,102181.22
2022-12-17T19:25:39.107Z,102193.22
2022-12-17T19:28:07.456Z,102139.69
2022-12-17T19:30:36.182Z,102178.03
2022-12-17T19:33:06.548Z,102183.19
2022-12-17T19:35:37.413Z,102197.84
2022-12-17T19:38:06.120Z,102190.53
2022-12-17T19:40:36.718Z,102200.09
2022-12-17T19:43:05.324Z,102206.22
2022-12-17T19:45:34.133Z,102185.50
2022-12-17T19:48:03.897Z,102055.03
2022-12-17T19:50:33.740Z,102194.16
2022-12-17T19:53:05.962Z,102207.75
2022-12-17T19:55:34.569Z,102207.13
2022-12-17T19:58:03.809Z,102189.41
2022-12-17T20:00:33.154Z,102153.34
2022-12-17T20:03:01.674Z,102185.25
2022-12-17T20:05:30.730Z,102108.09
2022-12-17T20:08:00.717Z,102215.34
2022-12-17T20:10:29.196Z,102219.81
2022-12-17T20:12:57.942Z,102224.28
2022-12-17T20:15:26.581Z,102234.66
2022-12-17T20:17:55.886Z,102221.34
2022-12-17T20:20:25.186Z,102242.44
2022-12-17T20:22:53.474Z,102243.03
2022-12-17T20:25:24.104Z,102245.63
2022-12-17T20:27:52.663Z,102241.25
2022-12-17T20:30:21.473Z,102249.66
2022-12-17T20:32:53.612Z,102244.94
2022-12-17T20:35:23.606Z,102245.94
2022-12-17T20:37:56.861Z,102130.53
2022-12-17T20:40:28.826Z,102248.56
2022-12-17T20:42:57.224Z,102249.13
2022-12-17T20:45:25.588Z,102181.72
2022-12-17T20:47:53.925Z,102250.38
2022-12-17T20:50:22.735Z,102179.38
2022-12-17T20:52:51.080Z,102255.25
2022-12-17T20:55:19.629Z,102155.19
2022-12-17T20:57:49.332Z,102263.41
2022-12-17T21:00:18.549Z,102269.41
2022-12-17T21:02:47.001Z,102273.59
2022-12-17T21:05:15.468Z,102267.59
2022-12-17T21:07:44.882Z,102264.13
2022-12-17T21:10:14.184Z,102260.53
2022-12-17T21:13:00.236Z,102264.22
2022-12-17T21:15:30.506Z,102273.94
2022-12-17T21:17:58.965Z,102276.47
2022-12-17T21:20:27.492Z,102281.34
2022-12-17T21:22:56.310Z,102275.81
2022-12-17T21:25:25.813Z,102284.66
2022-12-17T21:27:54.795Z,102300.19
2022-12-17T21:30:23.048Z,102246.34
2022-12-17T21:32:53.219Z,102289.81
2022-12-17T21:35:21.789Z,102300.91
2022-12-17T21:37:50.274Z,102307.91
2022-12-17T21:40:18.736Z,102313.06
2022-12-17T21:43:05.408Z,102316.47
2022-12-17T21:45:38.426Z,102319.13
2022-12-17T21:48:11.287Z,102287.13
2022-12-17T21:50:45.881Z,102276.94
2022-12-17T21:53:15.210Z,102273.91
2022-12-17T21:55:43.866Z,102310.69
2022-12-17T21:58:12.590Z,102260.16
2022-12-17T22:00:40.972Z,102320.06
2022-12-17T22:03:10.799Z,102208.25
2022-12-17T22:05:39.494Z,102255.00
2022-12-17T22:08:08.038Z,102325.16
2022-12-17T22:10:43.835Z,102282.50
2022-12-17T22:13:37.287Z,102312.91
2022-12-17T22:16:08.097Z,102318.28
2022-12-17T22:18:41.440Z,102310.50
2022-12-17T22:21:11.517Z,102321.66
2022-12-17T22:23:43.750Z,102320.88
2022-12-17T22:26:12.467Z,102326.75
2022-12-17T22:28:41.770Z,102323.00
2022-12-17T22:31:31.571Z,102323.00
2022-12-17T22:34:45.111Z,102278.28
2022-12-17T22:40:22.036Z,102334.53
2022-12-17T22:44:28.888Z,102339.38
2022-12-17T22:44:44.736Z,102298.22
2022-12-17T22:45:40.122Z,102326.06
2022-12-17T22:48:11.197Z,102339.66
2022-12-17T22:50:51.297Z,102311.84
2022-12-17T22:53:30.050Z,102303.56
2022-12-17T22:56:15.814Z,102332.13
2022-12-17T22:58:54.947Z,102349.72
2022-12-17T23:01:23.592Z,102355.09
2022-12-17T23:03:56.491Z,102356.81
2022-12-17T23:06:27.765Z,102361.00
2022-12-17T23:08:56.737Z,102366.19
2022-12-17T23:11:29.030Z,102361.78
2022-12-17T23:13:57.502Z,102369.19
2022-12-17T23:16:25.936Z,102372.31
2022-12-17T23:18:55.468Z,102374.81
2022-12-17T23:21:27.326Z,102325.69
2022-12-17T23:23:57.833Z,102378.53
2022-12-17T23:26:30.233Z,102370.84
2022-12-17T23:29:01.861Z,102369.44
2022-12-17T23:31:35.110Z,102378.66
2022-12-17T23:34:03.890Z,102375.28
2022-12-17T23:36:34.444Z,102359.88
2022-12-17T23:39:03.003Z,102300.81
2022-12-17T23:41:32.701Z,102376.78
2022-12-17T23:44:01.405Z,102382.25
2022-12-17T23:46:31.634Z,102384.84
2022-12-17T23:49:00.603Z,102357.38
2022-12-17T23:51:29.313Z,102343.25
2022-12-17T23:54:00.198Z,102391.50
2022-12-17T23:56:29.665Z,102392.09
2022-12-17T23:59:01.965Z,102395.38
